To NAV CANADA Home Page Login to a new session Search on AWWS site Feedback and Comments Disclaimer Vers la page française équivalente Tips FAQ What's new on the site To the Forecasts and Observations / NOTAM section To "File a Flight Plan" website Publications and other links Update of the User's profile FIC Telephone Numbers My Weather Data Folder Route Weather Data Regional Weather Data Local Weather Data To the Forecasts and Observations / NOTAM section
Request Generated 12/10/2016 at 16:33:43 UTC . Weather information available at that time is displayed.

METAR/TAF

STONY RAPIDS/SK    (show WxCam)

SPECI CYSF 101607Z AUTO 25005KT 7SM -SN BKN019 OVC040 M27/M29 A3017
RMK SLP255=
METAR CYSF 101600Z AUTO 25007KT 7SM -SN FEW019 OVC040 M27/M29 A3017
RMK SLP255=
METAR CYSF 101500Z AUTO 26004KT 250V030 7SM -SN OVC042 M27/M30 A3018
RMK SLP261=
METAR CYSF 101400Z AUTO 00000KT 9SM -SN OVC048 M29/M32 A3020 RMK
SLP270=

TAF CYSF 101138Z 1012/1024 VRB03KT P6SM SCT040 SCT070 TEMPO 1012/1016
3SM -SN OVC040
BECMG 1013/1015 26007KT
FM101600 26007KT P6SM SCT020 TEMPO 1016/1024 P6SM -SN BKN020
RMK FCST BASED ON AUTO OBS. NXT FCST BY 101800Z=
Your time UTC time
Weather data provided by Environment Canada and NAV CANADA